sensor_id;sensor_type;location;lat;lon;timestamp;temperature;humidity
36384;DHT22;22418;51.210;6.976;2022-12-07T00:02:04;7.10;99.90
36384;DHT22;22418;51.210;6.976;2022-12-07T00:04:34;7.10;99.90
36384;DHT22;22418;51.210;6.976;2022-12-07T00:07:05;7.20;99.90
36384;DHT22;22418;51.210;6.976;2022-12-07T00:09:36;7.20;99.90
36384;DHT22;22418;51.210;6.976;2022-12-07T00:12:08;7.20;99.90
36384;DHT22;22418;51.210;6.976;2022-12-07T00:14:38;7.20;99.90
36384;DHT22;22418;51.210;6.976;2022-12-07T00:17:09;7.20;99.90
36384;DHT22;22418;51.210;6.976;2022-12-07T00:19:39;7.20;99.90
36384;DHT22;22418;51.210;6.976;2022-12-07T00:22:10;7.20;99.90
36384;DHT22;22418;51.210;6.976;2022-12-07T00:24:40;7.20;99.90
36384;DHT22;22418;51.210;6.976;2022-12-07T00:27:11;7.20;99.90
36384;DHT22;22418;51.210;6.976;2022-12-07T00:29:41;7.20;99.90
36384;DHT22;22418;51.210;6.976;2022-12-07T00:32:12;7.20;99.90
36384;DHT22;22418;51.210;6.976;2022-12-07T00:34:42;7.30;99.90
36384;DHT22;22418;51.210;6.976;2022-12-07T00:37:13;7.30;99.90
36384;DHT22;22418;51.210;6.976;2022-12-07T00:39:45;7.30;99.90
36384;DHT22;22418;51.210;6.976;2022-12-07T00:42:16;7.20;99.90
36384;DHT22;22418;51.210;6.976;2022-12-07T00:44:46;7.20;99.90
36384;DHT22;22418;51.210;6.976;2022-12-07T00:47:17;7.20;99.90
36384;DHT22;22418;51.210;6.976;2022-12-07T00:49:47;7.20;99.90
36384;DHT22;22418;51.210;6.976;2022-12-07T00:52:18;7.20;99.90
36384;DHT22;22418;51.210;6.976;2022-12-07T00:54:48;7.20;99.90
36384;DHT22;22418;51.210;6.976;2022-12-07T00:57:19;7.10;99.90
36384;DHT22;22418;51.210;6.976;2022-12-07T00:59:50;7.20;99.90
36384;DHT22;22418;51.210;6.976;2022-12-07T01:02:21;7.20;99.90
36384;DHT22;22418;51.210;6.976;2022-12-07T01:04:52;7.20;99.90
36384;DHT22;22418;51.210;6.976;2022-12-07T01:07:22;7.20;99.90
36384;DHT22;22418;51.210;6.976;2022-12-07T01:09:53;7.20;99.90
36384;DHT22;22418;51.210;6.976;2022-12-07T01:12:24;7.20;99.90
36384;DHT22;22418;51.210;6.976;2022-12-07T01:14:54;7.20;99.90
36384;DHT22;22418;51.210;6.976;2022-12-07T01:17:25;7.10;99.90
36384;DHT22;22418;51.210;6.976;2022-12-07T01:19:55;7.20;99.90
36384;DHT22;22418;51.210;6.976;2022-12-07T01:22:26;7.20;99.90
36384;DHT22;22418;51.210;6.976;2022-12-07T01:24:57;7.30;99.90
36384;DHT22;22418;51.210;6.976;2022-12-07T01:27:27;7.20;99.90
36384;DHT22;22418;51.210;6.976;2022-12-07T01:29:58;7.20;99.90
36384;DHT22;22418;51.210;6.976;2022-12-07T01:32:29;7.20;99.90
36384;DHT22;22418;51.210;6.976;2022-12-07T01:34:59;7.10;99.90
36384;DHT22;22418;51.210;6.976;2022-12-07T01:37:36;7.20;99.90
36384;DHT22;22418;51.210;6.976;2022-12-07T01:40:09;7.20;99.90
36384;DHT22;22418;51.210;6.976;2022-12-07T01:42:40;7.20;99.90
36384;DHT22;22418;51.210;6.976;2022-12-07T01:47:54;7.20;99.90
36384;DHT22;22418;51.210;6.976;2022-12-07T01:50:26;7.20;99.90
36384;DHT22;22418;51.210;6.976;2022-12-07T01:52:59;7.20;99.90
36384;DHT22;22418;51.210;6.976;2022-12-07T01:55:33;7.20;99.90
36384;DHT22;22418;51.210;6.976;2022-12-07T01:58:04;7.20;99.90
36384;DHT22;22418;51.210;6.976;2022-12-07T02:00:35;7.20;99.90
36384;DHT22;22418;51.210;6.976;2022-12-07T02:03:24;7.10;99.90
36384;DHT22;22418;51.210;6.976;2022-12-07T02:05:59;7.20;99.90
36384;DHT22;22418;51.210;6.976;2022-12-07T02:08:30;7.20;99.90
36384;DHT22;22418;51.210;6.976;2022-12-07T02:11:03;7.20;99.90
36384;DHT22;22418;51.210;6.976;2022-12-07T02:13:37;7.10;99.90
36384;DHT22;22418;51.210;6.976;2022-12-07T02:16:28;7.20;99.90
36384;DHT22;22418;51.210;6.976;2022-12-07T02:19:16;7.20;99.90
36384;DHT22;22418;51.210;6.976;2022-12-07T02:22:08;7.20;99.90
36384;DHT22;22418;51.210;6.976;2022-12-07T02:25:05;7.20;99.90
36384;DHT22;22418;51.210;6.976;2022-12-07T02:30:31;7.10;99.90
36384;DHT22;22418;51.210;6.976;2022-12-07T02:33:28;7.20;99.90
36384;DHT22;22418;51.210;6.976;2022-12-07T02:36:12;7.20;99.90
36384;DHT22;22418;51.210;6.976;2022-12-07T02:41:33;7.30;99.90
36384;DHT22;22418;51.210;6.976;2022-12-07T02:44:15;7.20;99.90
36384;DHT22;22418;51.210;6.976;2022-12-07T02:46:53;7.20;99.90
36384;DHT22;22418;51.210;6.976;2022-12-07T02:49:26;7.20;99.90
36384;DHT22;22418;51.210;6.976;2022-12-07T02:51:57;7.10;99.90
36384;DHT22;22418;51.210;6.976;2022-12-07T02:54:28;7.10;99.90
36384;DHT22;22418;51.210;6.976;2022-12-07T03:00:09;7.20;99.90
36384;DHT22;22418;51.210;6.976;2022-12-07T03:02:52;7.10;99.90
36384;DHT22;22418;51.210;6.976;2022-12-07T03:05:40;7.20;99.90
36384;DHT22;22418;51.210;6.976;2022-12-07T03:08:56;7.20;99.90
36384;DHT22;22418;51.210;6.976;2022-12-07T03:11:50;7.20;99.90
36384;DHT22;22418;51.210;6.976;2022-12-07T03:14:30;7.10;99.90
36384;DHT22;22418;51.210;6.976;2022-12-07T03:17:12;7.10;99.90
36384;DHT22;22418;51.210;6.976;2022-12-07T03:19:45;7.10;99.90
36384;DHT22;22418;51.210;6.976;2022-12-07T03:22:17;7.10;99.90
36384;DHT22;22418;51.210;6.976;2022-12-07T03:24:58;7.10;99.90
36384;DHT22;22418;51.210;6.976;2022-12-07T03:27:34;7.10;99.90
36384;DHT22;22418;51.210;6.976;2022-12-07T03:30:15;7.10;99.90
36384;DHT22;22418;51.210;6.976;2022-12-07T03:33:13;7.10;99.90
36384;DHT22;22418;51.210;6.976;2022-12-07T03:38:32;7.10;99.90
36384;DHT22;22418;51.210;6.976;2022-12-07T03:41:07;7.20;99.90
36384;DHT22;22418;51.210;6.976;2022-12-07T03:43:40;7.20;99.90
36384;DHT22;22418;51.210;6.976;2022-12-07T03:46:33;7.20;99.90
36384;DHT22;22418;51.210;6.976;2022-12-07T03:49:28;7.10;99.90
36384;DHT22;22418;51.210;6.976;2022-12-07T03:52:18;7.10;99.90
36384;DHT22;22418;51.210;6.976;2022-12-07T03:55:26;7.00;99.90
36384;DHT22;22418;51.210;6.976;2022-12-07T03:57:51;7.00;99.90
36384;DHT22;22418;51.210;6.976;2022-12-07T04:00:23;7.00;99.90
36384;DHT22;22418;51.210;6.976;2022-12-07T04:02:55;7.00;99.90
36384;DHT22;22418;51.210;6.976;2022-12-07T04:05:26;6.90;99.90
36384;DHT22;22418;51.210;6.976;2022-12-07T04:07:56;6.90;99.90
36384;DHT22;22418;51.210;6.976;2022-12-07T04:10:27;6.90;99.90
36384;DHT22;22418;51.210;6.976;2022-12-07T04:12:58;6.90;99.90
36384;DHT22;22418;51.210;6.976;2022-12-07T04:15:28;6.90;99.90
36384;DHT22;22418;51.210;6.976;2022-12-07T04:17:59;6.90;99.90
36384;DHT22;22418;51.210;6.976;2022-12-07T04:20:32;6.90;99.90
36384;DHT22;22418;51.210;6.976;2022-12-07T04:23:03;7.00;99.90
36384;DHT22;22418;51.210;6.976;2022-12-07T04:25:33;6.90;99.90
36384;DHT22;22418;51.210;6.976;2022-12-07T04:28:04;6.90;99.90
36384;DHT22;22418;51.210;6.976;2022-12-07T04:30:34;6.90;99.90
36384;DHT22;22418;51.210;6.976;2022-12-07T04:33:05;7.00;99.90
36384;DHT22;22418;51.210;6.976;2022-12-07T04:35:36;7.00;99.90
36384;DHT22;22418;51.210;6.976;2022-12-07T04:38:06;7.00;99.90
36384;DHT22;22418;51.210;6.976;2022-12-07T04:40:37;7.00;99.90
36384;DHT22;22418;51.210;6.976;2022-12-07T04:43:07;7.00;99.90
36384;DHT22;22418;51.210;6.976;2022-12-07T04:45:38;7.00;99.90
36384;DHT22;22418;51.210;6.976;2022-12-07T04:48:08;7.10;99.90
36384;DHT22;22418;51.210;6.976;2022-12-07T04:50:39;7.00;99.90
36384;DHT22;22418;51.210;6.976;2022-12-07T04:53:10;7.00;99.90
36384;DHT22;22418;51.210;6.976;2022-12-07T04:55:40;7.00;99.90
36384;DHT22;22418;51.210;6.976;2022-12-07T04:58:12;7.00;99.90
36384;DHT22;22418;51.210;6.976;2022-12-07T05:00:42;6.90;99.90
36384;DHT22;22418;51.210;6.976;2022-12-07T05:03:13;7.00;99.90
36384;DHT22;22418;51.210;6.976;2022-12-07T05:05:44;7.00;99.90
36384;DHT22;22418;51.210;6.976;2022-12-07T05:08:14;7.00;99.90
36384;DHT22;22418;51.210;6.976;2022-12-07T05:10:45;6.90;99.90
36384;DHT22;22418;51.210;6.976;2022-12-07T05:13:15;6.80;99.90
36384;DHT22;22418;51.210;6.976;2022-12-07T05:15:49;6.80;99.90
36384;DHT22;22418;51.210;6.976;2022-12-07T05:18:20;6.90;99.90
36384;DHT22;22418;51.210;6.976;2022-12-07T05:20:51;6.90;99.90
36384;DHT22;22418;51.210;6.976;2022-12-07T05:23:21;6.80;99.90
36384;DHT22;22418;51.210;6.976;2022-12-07T05:25:52;6.80;99.90
36384;DHT22;22418;51.210;6.976;2022-12-07T05:28:22;6.90;99.90
36384;DHT22;22418;51.210;6.976;2022-12-07T05:30:53;6.90;99.90
36384;DHT22;22418;51.210;6.976;2022-12-07T05:33:24;6.90;99.90
36384;DHT22;22418;51.210;6.976;2022-12-07T05:35:54;6.90;99.90
36384;DHT22;22418;51.210;6.976;2022-12-07T05:38:25;6.90;99.90
36384;DHT22;22418;51.210;6.976;2022-12-07T05:40:55;6.90;99.90
36384;DHT22;22418;51.210;6.976;2022-12-07T05:43:30;6.80;99.90
36384;DHT22;22418;51.210;6.976;2022-12-07T05:46:00;6.80;99.90
36384;DHT22;22418;51.210;6.976;2022-12-07T05:48:31;6.90;99.90
36384;DHT22;22418;51.210;6.976;2022-12-07T05:51:04;6.90;99.90
36384;DHT22;22418;51.210;6.976;2022-12-07T05:53:34;6.90;99.90
36384;DHT22;22418;51.210;6.976;2022-12-07T05:56:05;7.00;99.90
36384;DHT22;22418;51.210;6.976;2022-12-07T05:58:36;6.90;99.90
36384;DHT22;22418;51.210;6.976;2022-12-07T06:01:25;6.90;99.90
36384;DHT22;22418;51.210;6.976;2022-12-07T06:03:56;6.90;99.90
36384;DHT22;22418;51.210;6.976;2022-12-07T06:06:26;6.90;99.90
36384;DHT22;22418;51.210;6.976;2022-12-07T06:08:57;6.90;99.90
36384;DHT22;22418;51.210;6.976;2022-12-07T06:11:28;6.90;99.90
36384;DHT22;22418;51.210;6.976;2022-12-07T06:14:17;6.90;99.90
36384;DHT22;22418;51.210;6.976;2022-12-07T06:16:48;6.90;99.90
36384;DHT22;22418;51.210;6.976;2022-12-07T06:19:18;6.90;99.90
36384;DHT22;22418;51.210;6.976;2022-12-07T06:21:49;6.90;99.90
36384;DHT22;22418;51.210;6.976;2022-12-07T06:24:19;6.90;99.90
36384;DHT22;22418;51.210;6.976;2022-12-07T06:26:50;6.90;99.90
36384;DHT22;22418;51.210;6.976;2022-12-07T06:29:21;6.90;99.90
36384;DHT22;22418;51.210;6.976;2022-12-07T06:31:52;7.00;99.90
36384;DHT22;22418;51.210;6.976;2022-12-07T06:34:24;6.90;99.90
36384;DHT22;22418;51.210;6.976;2022-12-07T06:36:54;6.90;99.90
36384;DHT22;22418;51.210;6.976;2022-12-07T06:39:27;6.90;99.90
36384;DHT22;22418;51.210;6.976;2022-12-07T06:41:58;6.90;99.90
36384;DHT22;22418;51.210;6.976;2022-12-07T06:44:29;6.80;99.90
36384;DHT22;22418;51.210;6.976;2022-12-07T06:46:59;6.80;99.90
36384;DHT22;22418;51.210;6.976;2022-12-07T06:49:30;6.80;99.90
36384;DHT22;22418;51.210;6.976;2022-12-07T06:52:01;6.80;99.90
36384;DHT22;22418;51.210;6.976;2022-12-07T06:54:31;6.80;99.90
36384;DHT22;22418;51.210;6.976;2022-12-07T06:57:02;6.80;99.90
36384;DHT22;22418;51.210;6.976;2022-12-07T06:59:32;6.70;99.90
36384;DHT22;22418;51.210;6.976;2022-12-07T07:02:03;6.70;99.90
36384;DHT22;22418;51.210;6.976;2022-12-07T07:04:33;6.70;99.90
36384;DHT22;22418;51.210;6.976;2022-12-07T07:07:04;6.80;99.90
36384;DHT22;22418;51.210;6.976;2022-12-07T07:09:35;6.70;99.90
36384;DHT22;22418;51.210;6.976;2022-12-07T07:12:05;6.70;99.90
36384;DHT22;22418;51.210;6.976;2022-12-07T07:14:36;6.70;99.90
36384;DHT22;22418;51.210;6.976;2022-12-07T07:17:07;6.70;99.90
36384;DHT22;22418;51.210;6.976;2022-12-07T07:19:37;6.70;99.90
36384;DHT22;22418;51.210;6.976;2022-12-07T07:22:08;6.70;99.90
36384;DHT22;22418;51.210;6.976;2022-12-07T07:24:38;6.70;99.90
36384;DHT22;22418;51.210;6.976;2022-12-07T07:27:09;6.70;99.90
36384;DHT22;22418;51.210;6.976;2022-12-07T07:29:39;6.70;99.90
36384;DHT22;22418;51.210;6.976;2022-12-07T07:32:10;6.70;99.90
36384;DHT22;22418;51.210;6.976;2022-12-07T07:34:40;6.80;99.90
36384;DHT22;22418;51.210;6.976;2022-12-07T07:37:11;6.80;99.90
36384;DHT22;22418;51.210;6.976;2022-12-07T07:39:42;6.70;99.90
36384;DHT22;22418;51.210;6.976;2022-12-07T07:42:14;6.80;99.90
36384;DHT22;22418;51.210;6.976;2022-12-07T07:44:45;6.80;99.90
36384;DHT22;22418;51.210;6.976;2022-12-07T07:47:15;6.80;99.90
36384;DHT22;22418;51.210;6.976;2022-12-07T07:49:46;6.80;99.90
36384;DHT22;22418;51.210;6.976;2022-12-07T07:52:16;6.80;99.90
36384;DHT22;22418;51.210;6.976;2022-12-07T07:54:47;6.90;99.90
36384;DHT22;22418;51.210;6.976;2022-12-07T07:57:17;6.80;99.90
36384;DHT22;22418;51.210;6.976;2022-12-07T07:59:48;6.80;99.90
36384;DHT22;22418;51.210;6.976;2022-12-07T08:02:20;6.80;99.90
36384;DHT22;22418;51.210;6.976;2022-12-07T08:04:50;6.80;99.90
36384;DHT22;22418;51.210;6.976;2022-12-07T08:07:21;6.80;99.90
36384;DHT22;22418;51.210;6.976;2022-12-07T08:09:51;6.80;99.90
36384;DHT22;22418;51.210;6.976;2022-12-07T08:12:22;6.80;99.90
36384;DHT22;22418;51.210;6.976;2022-12-07T08:14:53;6.70;99.90
36384;DHT22;22418;51.210;6.976;2022-12-07T08:17:23;6.70;99.90
36384;DHT22;22418;51.210;6.976;2022-12-07T08:19:54;6.70;99.90
36384;DHT22;22418;51.210;6.976;2022-12-07T08:22:24;6.80;99.90
36384;DHT22;22418;51.210;6.976;2022-12-07T08:24:55;6.90;99.90
36384;DHT22;22418;51.210;6.976;2022-12-07T08:27:28;6.90;99.90
36384;DHT22;22418;51.210;6.976;2022-12-07T08:29:59;6.90;99.90
36384;DHT22;22418;51.210;6.976;2022-12-07T08:32:29;6.90;99.90
36384;DHT22;22418;51.210;6.976;2022-12-07T08:35:00;6.90;99.90
36384;DHT22;22418;51.210;6.976;2022-12-07T08:37:31;7.00;99.90
36384;DHT22;22418;51.210;6.976;2022-12-07T08:40:03;7.10;99.90
36384;DHT22;22418;51.210;6.976;2022-12-07T08:42:34;7.10;99.90
36384;DHT22;22418;51.210;6.976;2022-12-07T08:45:12;7.10;99.90
36384;DHT22;22418;51.210;6.976;2022-12-07T08:47:55;7.30;99.90
36384;DHT22;22418;51.210;6.976;2022-12-07T08:50:27;7.20;99.90
36384;DHT22;22418;51.210;6.976;2022-12-07T08:52:58;7.20;99.90
36384;DHT22;22418;51.210;6.976;2022-12-07T08:55:29;7.30;99.90
36384;DHT22;22418;51.210;6.976;2022-12-07T08:58:00;7.30;99.90
36384;DHT22;22418;51.210;6.976;2022-12-07T09:00:32;7.30;99.90
36384;DHT22;22418;51.210;6.976;2022-12-07T09:03:03;7.30;99.90
36384;DHT22;22418;51.210;6.976;2022-12-07T09:05:33;7.30;99.90
36384;DHT22;22418;51.210;6.976;2022-12-07T09:08:04;7.40;99.90
36384;DHT22;22418;51.210;6.976;2022-12-07T09:10:35;7.40;99.90
36384;DHT22;22418;51.210;6.976;2022-12-07T09:13:06;7.40;99.90
36384;DHT22;22418;51.210;6.976;2022-12-07T09:15:36;7.40;99.90
36384;DHT22;22418;51.210;6.976;2022-12-07T09:18:07;7.40;99.90
36384;DHT22;22418;51.210;6.976;2022-12-07T09:20:37;7.50;99.90
36384;DHT22;22418;51.210;6.976;2022-12-07T09:23:08;7.50;99.90
36384;DHT22;22418;51.210;6.976;2022-12-07T09:25:38;7.50;99.90
36384;DHT22;22418;51.210;6.976;2022-12-07T09:28:09;7.50;99.90
36384;DHT22;22418;51.210;6.976;2022-12-07T09:30:46;7.50;99.90
36384;DHT22;22418;51.210;6.976;2022-12-07T09:33:17;7.60;99.90
36384;DHT22;22418;51.210;6.976;2022-12-07T09:35:49;7.70;99.90
36384;DHT22;22418;51.210;6.976;2022-12-07T09:38:20;7.80;99.90
36384;DHT22;22418;51.210;6.976;2022-12-07T09:40:51;7.90;99.90
36384;DHT22;22418;51.210;6.976;2022-12-07T09:43:24;8.00;99.90
36384;DHT22;22418;51.210;6.976;2022-12-07T09:45:55;8.00;99.90
36384;DHT22;22418;51.210;6.976;2022-12-07T09:48:34;8.10;99.90
36384;DHT22;22418;51.210;6.976;2022-12-07T09:51:25;8.10;99.90
36384;DHT22;22418;51.210;6.976;2022-12-07T09:53:58;8.10;99.90
36384;DHT22;22418;51.210;6.976;2022-12-07T09:56:29;8.10;99.90
36384;DHT22;22418;51.210;6.976;2022-12-07T09:59:03;8.10;99.90
36384;DHT22;22418;51.210;6.976;2022-12-07T10:01:34;8.20;99.90
36384;DHT22;22418;51.210;6.976;2022-12-07T10:04:22;8.20;99.90
36384;DHT22;22418;51.210;6.976;2022-12-07T10:06:54;8.20;99.90
36384;DHT22;22418;51.210;6.976;2022-12-07T10:09:24;8.20;99.90
36384;DHT22;22418;51.210;6.976;2022-12-07T10:12:04;8.10;99.90
36384;DHT22;22418;51.210;6.976;2022-12-07T10:14:38;8.10;99.90
36384;DHT22;22418;51.210;6.976;2022-12-07T10:20:24;8.00;99.90
36384;DHT22;22418;51.210;6.976;2022-12-07T10:23:04;8.00;99.90
36384;DHT22;22418;51.210;6.976;2022-12-07T10:25:36;8.00;99.90
36384;DHT22;22418;51.210;6.976;2022-12-07T10:30:57;8.00;99.90
36384;DHT22;22418;51.210;6.976;2022-12-07T10:33:38;8.00;99.90
36384;DHT22;22418;51.210;6.976;2022-12-07T10:39:12;8.20;99.90
36384;DHT22;22418;51.210;6.976;2022-12-07T10:41:53;8.10;99.90
36384;DHT22;22418;51.210;6.976;2022-12-07T10:44:27;8.00;99.90
36384;DHT22;22418;51.210;6.976;2022-12-07T10:55:52;8.10;99.90
36384;DHT22;22418;51.210;6.976;2022-12-07T10:58:49;8.20;99.90
36384;DHT22;22418;51.210;6.976;2022-12-07T11:01:33;8.20;99.90
36384;DHT22;22418;51.210;6.976;2022-12-07T11:07:19;8.20;99.90
36384;DHT22;22418;51.210;6.976;2022-12-07T11:12:47;8.20;99.90
36384;DHT22;22418;51.210;6.976;2022-12-07T11:24:17;8.20;99.90
36384;DHT22;22418;51.210;6.976;2022-12-07T11:32:51;8.10;99.90
36384;DHT22;22418;51.210;6.976;2022-12-07T11:38:42;8.20;99.90
36384;DHT22;22418;51.210;6.976;2022-12-07T11:41:19;8.30;99.90
36384;DHT22;22418;51.210;6.976;2022-12-07T11:46:47;8.60;99.90
36384;DHT22;22418;51.210;6.976;2022-12-07T11:49:47;8.40;99.90
36384;DHT22;22418;51.210;6.976;2022-12-07T11:52:24;8.50;99.90
36384;DHT22;22418;51.210;6.976;2022-12-07T11:54:57;8.60;99.90
36384;DHT22;22418;51.210;6.976;2022-12-07T11:57:48;8.60;99.90
36384;DHT22;22418;51.210;6.976;2022-12-07T12:00:20;8.60;99.90
36384;DHT22;22418;51.210;6.976;2022-12-07T12:03:15;8.40;99.90
36384;DHT22;22418;51.210;6.976;2022-12-07T12:05:48;8.30;99.90
36384;DHT22;22418;51.210;6.976;2022-12-07T12:08:27;8.40;99.90
36384;DHT22;22418;51.210;6.976;2022-12-07T12:22:46;8.30;99.90
36384;DHT22;22418;51.210;6.976;2022-12-07T12:25:26;8.40;99.90
36384;DHT22;22418;51.210;6.976;2022-12-07T12:27:59;8.40;99.90
36384;DHT22;22418;51.210;6.976;2022-12-07T12:30:34;8.40;99.90
36384;DHT22;22418;51.210;6.976;2022-12-07T12:35:45;8.50;99.90
36384;DHT22;22418;51.210;6.976;2022-12-07T12:38:32;8.40;99.90
36384;DHT22;22418;51.210;6.976;2022-12-07T12:41:03;8.50;99.90
36384;DHT22;22418;51.210;6.976;2022-12-07T12:43:50;8.50;99.90
36384;DHT22;22418;51.210;6.976;2022-12-07T12:51:54;8.50;99.90
36384;DHT22;22418;51.210;6.976;2022-12-07T12:54:30;8.50;99.90
36384;DHT22;22418;51.210;6.976;2022-12-07T13:31:51;8.40;99.90
36384;DHT22;22418;51.210;6.976;2022-12-07T13:34:29;8.40;99.90
36384;DHT22;22418;51.210;6.976;2022-12-07T13:39:56;8.20;99.90
36384;DHT22;22418;51.210;6.976;2022-12-07T13:42:30;8.10;99.90
36384;DHT22;22418;51.210;6.976;2022-12-07T13:45:21;8.10;99.90
36384;DHT22;22418;51.210;6.976;2022-12-07T13:47:54;8.10;99.90
36384;DHT22;22418;51.210;6.976;2022-12-07T13:50:29;8.20;99.90
36384;DHT22;22418;51.210;6.976;2022-12-07T13:53:01;8.20;99.90
36384;DHT22;22418;51.210;6.976;2022-12-07T13:55:32;8.30;99.90
36384;DHT22;22418;51.210;6.976;2022-12-07T13:58:03;8.30;99.90
36384;DHT22;22418;51.210;6.976;2022-12-07T14:00:33;8.30;99.90
36384;DHT22;22418;51.210;6.976;2022-12-07T14:03:26;8.20;99.90
36384;DHT22;22418;51.210;6.976;2022-12-07T14:06:15;8.20;99.90
36384;DHT22;22418;51.210;6.976;2022-12-07T14:08:46;8.10;99.90
36384;DHT22;22418;51.210;6.976;2022-12-07T14:11:19;8.10;99.90
36384;DHT22;22418;51.210;6.976;2022-12-07T14:13:58;8.10;99.90
36384;DHT22;22418;51.210;6.976;2022-12-07T14:16:37;8.10;99.90
36384;DHT22;22418;51.210;6.976;2022-12-07T14:19:41;8.10;99.90
36384;DHT22;22418;51.210;6.976;2022-12-07T14:22:22;8.20;99.90
36384;DHT22;22418;51.210;6.976;2022-12-07T14:27:33;8.20;99.90
36384;DHT22;22418;51.210;6.976;2022-12-07T14:30:05;8.00;99.90
36384;DHT22;22418;51.210;6.976;2022-12-07T14:32:37;8.00;99.90
36384;DHT22;22418;51.210;6.976;2022-12-07T14:35:12;8.00;99.90
36384;DHT22;22418;51.210;6.976;2022-12-07T14:37:45;8.00;99.90
36384;DHT22;22418;51.210;6.976;2022-12-07T14:40:22;8.00;99.90
36384;DHT22;22418;51.210;6.976;2022-12-07T14:42:57;8.00;99.90
36384;DHT22;22418;51.210;6.976;2022-12-07T14:45:29;8.00;99.90
36384;DHT22;22418;51.210;6.976;2022-12-07T14:48:00;8.00;99.90
36384;DHT22;22418;51.210;6.976;2022-12-07T14:50:36;8.00;99.90
36384;DHT22;22418;51.210;6.976;2022-12-07T14:53:15;8.00;99.90
36384;DHT22;22418;51.210;6.976;2022-12-07T14:55:46;7.90;99.90
36384;DHT22;22418;51.210;6.976;2022-12-07T14:58:18;7.90;99.90
36384;DHT22;22418;51.210;6.976;2022-12-07T15:00:48;7.80;99.90
36384;DHT22;22418;51.210;6.976;2022-12-07T15:03:19;7.80;99.90
36384;DHT22;22418;51.210;6.976;2022-12-07T15:05:49;7.80;99.90
36384;DHT22;22418;51.210;6.976;2022-12-07T15:08:20;7.80;99.90
36384;DHT22;22418;51.210;6.976;2022-12-07T15:10:50;7.70;99.90
36384;DHT22;22418;51.210;6.976;2022-12-07T15:13:21;7.60;99.90
36384;DHT22;22418;51.210;6.976;2022-12-07T15:16:13;7.60;99.90
36384;DHT22;22418;51.210;6.976;2022-12-07T15:18:46;7.50;99.90
36384;DHT22;22418;51.210;6.976;2022-12-07T15:21:17;7.50;99.90
36384;DHT22;22418;51.210;6.976;2022-12-07T15:23:48;7.50;99.90
36384;DHT22;22418;51.210;6.976;2022-12-07T15:26:19;7.50;99.90
36384;DHT22;22418;51.210;6.976;2022-12-07T15:28:49;7.50;99.90
36384;DHT22;22418;51.210;6.976;2022-12-07T15:31:20;7.50;99.90
36384;DHT22;22418;51.210;6.976;2022-12-07T15:33:50;7.50;99.90
36384;DHT22;22418;51.210;6.976;2022-12-07T15:36:23;7.40;99.90
36384;DHT22;22418;51.210;6.976;2022-12-07T15:38:55;7.40;99.90
36384;DHT22;22418;51.210;6.976;2022-12-07T15:41:26;7.40;99.90
36384;DHT22;22418;51.210;6.976;2022-12-07T15:43:57;7.30;99.90
36384;DHT22;22418;51.210;6.976;2022-12-07T15:46:46;7.30;99.90
36384;DHT22;22418;51.210;6.976;2022-12-07T15:49:18;7.30;99.90
36384;DHT22;22418;51.210;6.976;2022-12-07T15:51:49;7.30;99.90
36384;DHT22;22418;51.210;6.976;2022-12-07T15:54:23;7.30;99.90
36384;DHT22;22418;51.210;6.976;2022-12-07T15:56:54;7.30;99.90
36384;DHT22;22418;51.210;6.976;2022-12-07T15:59:26;7.30;99.90
36384;DHT22;22418;51.210;6.976;2022-12-07T16:01:57;7.30;99.90
36384;DHT22;22418;51.210;6.976;2022-12-07T16:04:28;7.40;99.90
36384;DHT22;22418;51.210;6.976;2022-12-07T16:06:59;7.40;99.90
36384;DHT22;22418;51.210;6.976;2022-12-07T16:09:30;7.40;99.90
36384;DHT22;22418;51.210;6.976;2022-12-07T16:12:01;7.40;99.90
36384;DHT22;22418;51.210;6.976;2022-12-07T16:14:32;7.40;99.90
36384;DHT22;22418;51.210;6.976;2022-12-07T16:17:04;7.40;99.90
36384;DHT22;22418;51.210;6.976;2022-12-07T16:19:35;7.40;99.90
36384;DHT22;22418;51.210;6.976;2022-12-07T16:22:06;7.40;99.90
36384;DHT22;22418;51.210;6.976;2022-12-07T16:24:37;7.40;99.90
36384;DHT22;22418;51.210;6.976;2022-12-07T16:27:07;7.40;99.90
36384;DHT22;22418;51.210;6.976;2022-12-07T16:29:38;7.40;99.90
36384;DHT22;22418;51.210;6.976;2022-12-07T16:32:09;7.40;99.90
36384;DHT22;22418;51.210;6.976;2022-12-07T16:34:39;7.50;99.90
36384;DHT22;22418;51.210;6.976;2022-12-07T16:37:10;7.40;99.90
36384;DHT22;22418;51.210;6.976;2022-12-07T16:39:40;7.40;99.90
36384;DHT22;22418;51.210;6.976;2022-12-07T16:42:11;7.50;99.90
36384;DHT22;22418;51.210;6.976;2022-12-07T16:44:41;7.50;99.90
36384;DHT22;22418;51.210;6.976;2022-12-07T16:47:13;7.50;99.90
36384;DHT22;22418;51.210;6.976;2022-12-07T16:49:44;7.40;99.90
36384;DHT22;22418;51.210;6.976;2022-12-07T16:52:14;7.40;99.90
36384;DHT22;22418;51.210;6.976;2022-12-07T16:54:45;7.30;99.90
36384;DHT22;22418;51.210;6.976;2022-12-07T16:57:17;7.40;99.90
36384;DHT22;22418;51.210;6.976;2022-12-07T16:59:47;7.30;99.90
36384;DHT22;22418;51.210;6.976;2022-12-07T17:02:18;7.30;99.90
36384;DHT22;22418;51.210;6.976;2022-12-07T17:04:50;7.30;99.90
36384;DHT22;22418;51.210;6.976;2022-12-07T17:07:21;7.40;99.90
36384;DHT22;22418;51.210;6.976;2022-12-07T17:09:52;7.40;99.90
36384;DHT22;22418;51.210;6.976;2022-12-07T17:12:23;7.40;99.90
36384;DHT22;22418;51.210;6.976;2022-12-07T17:14:54;7.40;99.90
36384;DHT22;22418;51.210;6.976;2022-12-07T17:17:44;7.50;99.90
36384;DHT22;22418;51.210;6.976;2022-12-07T17:20:15;7.40;99.90
36384;DHT22;22418;51.210;6.976;2022-12-07T17:22:47;7.50;99.90
36384;DHT22;22418;51.210;6.976;2022-12-07T17:25:18;7.50;99.90
36384;DHT22;22418;51.210;6.976;2022-12-07T17:27:49;7.40;99.90
36384;DHT22;22418;51.210;6.976;2022-12-07T17:30:20;7.40;99.90
36384;DHT22;22418;51.210;6.976;2022-12-07T17:32:51;7.30;99.90
36384;DHT22;22418;51.210;6.976;2022-12-07T17:35:22;7.30;99.90
36384;DHT22;22418;51.210;6.976;2022-12-07T17:37:52;7.40;99.90
36384;DHT22;22418;51.210;6.976;2022-12-07T17:40:23;7.40;99.90
36384;DHT22;22418;51.210;6.976;2022-12-07T17:42:53;7.40;99.90
36384;DHT22;22418;51.210;6.976;2022-12-07T17:45:24;7.40;99.90
36384;DHT22;22418;51.210;6.976;2022-12-07T17:47:54;7.50;99.90
36384;DHT22;22418;51.210;6.976;2022-12-07T17:50:25;7.50;99.90
36384;DHT22;22418;51.210;6.976;2022-12-07T17:53:17;7.50;99.90
36384;DHT22;22418;51.210;6.976;2022-12-07T17:55:52;7.50;99.90
36384;DHT22;22418;51.210;6.976;2022-12-07T17:58:23;7.50;99.90
36384;DHT22;22418;51.210;6.976;2022-12-07T18:00:53;7.50;99.90
36384;DHT22;22418;51.210;6.976;2022-12-07T18:03:24;7.50;99.90
36384;DHT22;22418;51.210;6.976;2022-12-07T18:05:54;7.50;99.90
36384;DHT22;22418;51.210;6.976;2022-12-07T18:08:25;7.50;99.90
36384;DHT22;22418;51.210;6.976;2022-12-07T18:10:59;7.60;99.90
36384;DHT22;22418;51.210;6.976;2022-12-07T18:13:31;7.50;99.90
36384;DHT22;22418;51.210;6.976;2022-12-07T18:16:11;7.60;99.90
36384;DHT22;22418;51.210;6.976;2022-12-07T18:18:44;7.50;99.90
36384;DHT22;22418;51.210;6.976;2022-12-07T18:21:17;7.50;99.90
36384;DHT22;22418;51.210;6.976;2022-12-07T18:23:51;7.40;99.90
36384;DHT22;22418;51.210;6.976;2022-12-07T18:26:23;7.40;99.90